This is the latest recevied weather packets stored in our database for station/object SP4FDH-13. If no packets are shown the sender has not sent any weather packets the latest 10 day(s).
| Time | Temp. | Humidity | Pressure | Rain* | Wind** | Luminosity | Snow |
|---|---|---|---|---|---|---|---|
| 1777755857 | 13.89° C | 66% | 1016.3 hPa | - | - | - | - |
| 1777755281 | 13.89° C | 64% | 1016.2 hPa | - | - | - | - |
| 1777754706 | 13.89° C | 66% | 1016.3 hPa | - | - | - | - |
| 1777754130 | 14.44° C | 69% | 1016.4 hPa | - | - | - | - |
| 1777753555 | 14.44° C | 65% | 1016.2 hPa | - | - | - | - |
| 1777752980 | 14.44° C | 64% | 1016.1 hPa | - | - | - | - |
| 1777752405 | 15° C | 59% | 1016.2 hPa | - | - | - | - |
| 1777751830 | 15° C | 59% | 1016.2 hPa | - | - | - | - |
| 1777751255 | 15.56° C | 55% | 1016.1 hPa | - | - | - | - |
| 1777750680 | 16.11° C | 54% | 1016 hPa | - | - | - | - |
| 1777750105 | 16.67° C | 54% | 1016.1 hPa | - | - | - | - |
| 1777749531 | 17.22° C | 55% | 1016.1 hPa | - | - | - | - |
| 1777748955 | 17.78° C | 54% | 1016.1 hPa | - | - | - | - |
| 1777748380 | 17.22° C | 50% | 1015.9 hPa | - | - | - | - |
| 1777747805 | 17.78° C | 55% | 1016 hPa | - | - | - | - |
| 1777747232 | 18.89° C | 51% | 1016 hPa | - | - | - | - |
| 1777746657 | 19.44° C | 46% | 1015.8 hPa | - | - | - | - |
| 1777746083 | 20.56° C | 43% | 1015.8 hPa | - | - | - | - |
| 1777745508 | 21.11° C | 40% | 1015.6 hPa | - | - | - | - |
| 1777744934 | 22.22° C | 37% | 1015.3 hPa | - | - | - | - |
| 1777744359 | 22.78° C | 32% | 1015.1 hPa | - | - | - | - |
| 1777743784 | 23.33° C | 28% | 1014.8 hPa | - | - | - | - |
| 1777743209 | 23.89° C | 27% | 1014.7 hPa | - | - | - | - |
| 1777742633 | 23.89° C | 26% | 1014.6 hPa | - | - | - | - |
| 1777742058 | 23.89° C | 26% | 1014.7 hPa | - | - | - | - |
* Rain since midnight (hover to see other rain measurements)
** Current wind speed in m/s (hover to see current wind gust speed)